sensor_id;sensor_type;location;lat;lon;timestamp;P1;durP1;ratioP1;P2;durP2;ratioP2
11054;SDS011;5580;50.106;8.702;2023-07-20T00:01:17;6.97;;;4.00;;
11054;SDS011;5580;50.106;8.702;2023-07-20T00:03:43;5.17;;;3.90;;
11054;SDS011;5580;50.106;8.702;2023-07-20T00:06:09;5.57;;;3.80;;
11054;SDS011;5580;50.106;8.702;2023-07-20T00:08:34;6.27;;;3.90;;
11054;SDS011;5580;50.106;8.702;2023-07-20T00:11:00;8.57;;;3.90;;
11054;SDS011;5580;50.106;8.702;2023-07-20T00:13:25;8.07;;;4.50;;
11054;SDS011;5580;50.106;8.702;2023-07-20T00:15:51;6.07;;;3.90;;
11054;SDS011;5580;50.106;8.702;2023-07-20T00:18:17;5.33;;;3.63;;
11054;SDS011;5580;50.106;8.702;2023-07-20T00:20:46;8.53;;;4.07;;
11054;SDS011;5580;50.106;8.702;2023-07-20T00:23:12;9.47;;;4.30;;
11054;SDS011;5580;50.106;8.702;2023-07-20T00:25:37;8.03;;;4.37;;
11054;SDS011;5580;50.106;8.702;2023-07-20T00:28:03;7.00;;;4.37;;
11054;SDS011;5580;50.106;8.702;2023-07-20T00:30:28;9.67;;;4.57;;
11054;SDS011;5580;50.106;8.702;2023-07-20T00:32:54;6.33;;;3.90;;
11054;SDS011;5580;50.106;8.702;2023-07-20T00:35:19;8.40;;;4.03;;
11054;SDS011;5580;50.106;8.702;2023-07-20T00:37:45;7.70;;;3.90;;
11054;SDS011;5580;50.106;8.702;2023-07-20T00:40:11;7.53;;;4.13;;
11054;SDS011;5580;50.106;8.702;2023-07-20T00:42:36;9.30;;;4.23;;
11054;SDS011;5580;50.106;8.702;2023-07-20T00:45:02;9.97;;;4.27;;
11054;SDS011;5580;50.106;8.702;2023-07-20T00:47:28;8.47;;;4.13;;
11054;SDS011;5580;50.106;8.702;2023-07-20T00:49:53;9.27;;;4.30;;
11054;SDS011;5580;50.106;8.702;2023-07-20T00:52:20;8.70;;;4.43;;
11054;SDS011;5580;50.106;8.702;2023-07-20T00:54:48;6.50;;;4.40;;
11054;SDS011;5580;50.106;8.702;2023-07-20T00:57:14;7.37;;;4.20;;
11054;SDS011;5580;50.106;8.702;2023-07-20T00:59:40;9.67;;;4.30;;
11054;SDS011;5580;50.106;8.702;2023-07-20T01:02:06;8.07;;;4.30;;
11054;SDS011;5580;50.106;8.702;2023-07-20T01:04:32;7.93;;;4.53;;
11054;SDS011;5580;50.106;8.702;2023-07-20T01:09:36;6.10;;;4.23;;
11054;SDS011;5580;50.106;8.702;2023-07-20T01:14:39;5.97;;;4.40;;
11054;SDS011;5580;50.106;8.702;2023-07-20T01:17:05;7.27;;;4.30;;
11054;SDS011;5580;50.106;8.702;2023-07-20T01:19:31;10.43;;;4.60;;
11054;SDS011;5580;50.106;8.702;2023-07-20T01:21:57;8.47;;;4.37;;
11054;SDS011;5580;50.106;8.702;2023-07-20T01:27:29;7.90;;;4.30;;
11054;SDS011;5580;50.106;8.702;2023-07-20T01:33:06;8.50;;;3.97;;
11054;SDS011;5580;50.106;8.702;2023-07-20T01:35:33;10.07;;;4.60;;
11054;SDS011;5580;50.106;8.702;2023-07-20T01:38:00;6.87;;;4.27;;
11054;SDS011;5580;50.106;8.702;2023-07-20T01:40:27;8.43;;;4.50;;
11054;SDS011;5580;50.106;8.702;2023-07-20T01:42:53;8.40;;;4.30;;
11054;SDS011;5580;50.106;8.702;2023-07-20T01:45:19;7.33;;;4.30;;
11054;SDS011;5580;50.106;8.702;2023-07-20T01:47:45;10.10;;;4.67;;
11054;SDS011;5580;50.106;8.702;2023-07-20T01:50:10;8.47;;;4.30;;
11054;SDS011;5580;50.106;8.702;2023-07-20T01:52:36;11.17;;;4.73;;
11054;SDS011;5580;50.106;8.702;2023-07-20T01:55:01;9.53;;;4.90;;
11054;SDS011;5580;50.106;8.702;2023-07-20T01:57:27;7.43;;;4.77;;
11054;SDS011;5580;50.106;8.702;2023-07-20T01:59:53;6.90;;;4.20;;
11054;SDS011;5580;50.106;8.702;2023-07-20T02:02:18;8.93;;;4.67;;
11054;SDS011;5580;50.106;8.702;2023-07-20T02:04:45;10.33;;;4.50;;
11054;SDS011;5580;50.106;8.702;2023-07-20T02:07:11;9.93;;;4.60;;
11054;SDS011;5580;50.106;8.702;2023-07-20T02:09:36;9.73;;;4.60;;
11054;SDS011;5580;50.106;8.702;2023-07-20T02:12:02;8.93;;;4.80;;
11054;SDS011;5580;50.106;8.702;2023-07-20T02:14:27;9.40;;;4.57;;
11054;SDS011;5580;50.106;8.702;2023-07-20T02:16:53;8.20;;;4.50;;
11054;SDS011;5580;50.106;8.702;2023-07-20T02:19:24;9.53;;;4.57;;
11054;SDS011;5580;50.106;8.702;2023-07-20T02:21:51;7.50;;;4.47;;
11054;SDS011;5580;50.106;8.702;2023-07-20T02:24:16;8.27;;;4.67;;
11054;SDS011;5580;50.106;8.702;2023-07-20T02:26:42;10.63;;;4.73;;
11054;SDS011;5580;50.106;8.702;2023-07-20T02:29:08;9.47;;;4.93;;
11054;SDS011;5580;50.106;8.702;2023-07-20T02:31:36;8.30;;;4.60;;
11054;SDS011;5580;50.106;8.702;2023-07-20T02:34:02;7.30;;;4.70;;
11054;SDS011;5580;50.106;8.702;2023-07-20T02:36:28;11.33;;;4.30;;
11054;SDS011;5580;50.106;8.702;2023-07-20T02:38:53;10.77;;;4.47;;
11054;SDS011;5580;50.106;8.702;2023-07-20T02:41:19;10.53;;;4.70;;
11054;SDS011;5580;50.106;8.702;2023-07-20T02:43:45;8.70;;;4.53;;
11054;SDS011;5580;50.106;8.702;2023-07-20T02:46:10;10.73;;;4.57;;
11054;SDS011;5580;50.106;8.702;2023-07-20T02:48:36;9.60;;;5.00;;
11054;SDS011;5580;50.106;8.702;2023-07-20T02:51:02;8.30;;;4.77;;
11054;SDS011;5580;50.106;8.702;2023-07-20T02:53:27;10.27;;;4.70;;
11054;SDS011;5580;50.106;8.702;2023-07-20T02:55:53;11.00;;;4.50;;
11054;SDS011;5580;50.106;8.702;2023-07-20T02:58:19;7.77;;;4.33;;
11054;SDS011;5580;50.106;8.702;2023-07-20T03:00:44;9.00;;;4.70;;
11054;SDS011;5580;50.106;8.702;2023-07-20T03:03:10;7.50;;;4.90;;
11054;SDS011;5580;50.106;8.702;2023-07-20T03:05:36;14.33;;;4.93;;
11054;SDS011;5580;50.106;8.702;2023-07-20T03:08:04;10.90;;;4.90;;
11054;SDS011;5580;50.106;8.702;2023-07-20T03:10:31;7.03;;;4.47;;
11054;SDS011;5580;50.106;8.702;2023-07-20T03:12:56;9.63;;;4.90;;
11054;SDS011;5580;50.106;8.702;2023-07-20T03:15:22;8.93;;;4.43;;
11054;SDS011;5580;50.106;8.702;2023-07-20T03:17:48;9.50;;;5.10;;
11054;SDS011;5580;50.106;8.702;2023-07-20T03:20:13;9.10;;;4.67;;
11054;SDS011;5580;50.106;8.702;2023-07-20T03:22:39;8.50;;;4.60;;
11054;SDS011;5580;50.106;8.702;2023-07-20T03:25:05;12.27;;;4.83;;
11054;SDS011;5580;50.106;8.702;2023-07-20T03:27:30;9.47;;;5.07;;
11054;SDS011;5580;50.106;8.702;2023-07-20T03:29:56;8.93;;;4.80;;
11054;SDS011;5580;50.106;8.702;2023-07-20T03:32:21;6.97;;;4.90;;
11054;SDS011;5580;50.106;8.702;2023-07-20T03:34:47;9.37;;;4.93;;
11054;SDS011;5580;50.106;8.702;2023-07-20T03:37:13;8.23;;;4.77;;
11054;SDS011;5580;50.106;8.702;2023-07-20T03:39:38;9.47;;;4.67;;
11054;SDS011;5580;50.106;8.702;2023-07-20T03:42:04;9.83;;;4.53;;
11054;SDS011;5580;50.106;8.702;2023-07-20T03:44:31;9.80;;;4.60;;
11054;SDS011;5580;50.106;8.702;2023-07-20T03:46:56;8.83;;;4.53;;
11054;SDS011;5580;50.106;8.702;2023-07-20T03:49:22;8.10;;;4.73;;
11054;SDS011;5580;50.106;8.702;2023-07-20T03:51:48;11.43;;;4.87;;
11054;SDS011;5580;50.106;8.702;2023-07-20T03:54:13;8.77;;;4.80;;
11054;SDS011;5580;50.106;8.702;2023-07-20T03:56:39;7.97;;;4.53;;
11054;SDS011;5580;50.106;8.702;2023-07-20T03:59:04;11.80;;;5.00;;
11054;SDS011;5580;50.106;8.702;2023-07-20T04:01:30;10.63;;;5.03;;
11054;SDS011;5580;50.106;8.702;2023-07-20T04:04:01;10.27;;;4.97;;
11054;SDS011;5580;50.106;8.702;2023-07-20T04:06:30;8.50;;;4.67;;
11054;SDS011;5580;50.106;8.702;2023-07-20T04:08:55;6.77;;;4.60;;
11054;SDS011;5580;50.106;8.702;2023-07-20T04:11:21;10.30;;;4.90;;
11054;SDS011;5580;50.106;8.702;2023-07-20T04:13:46;9.67;;;4.50;;
11054;SDS011;5580;50.106;8.702;2023-07-20T04:16:12;8.87;;;4.63;;
11054;SDS011;5580;50.106;8.702;2023-07-20T04:18:37;6.73;;;4.67;;
11054;SDS011;5580;50.106;8.702;2023-07-20T04:21:03;10.67;;;4.60;;
11054;SDS011;5580;50.106;8.702;2023-07-20T04:23:29;7.20;;;4.63;;
11054;SDS011;5580;50.106;8.702;2023-07-20T04:25:54;10.40;;;4.63;;
11054;SDS011;5580;50.106;8.702;2023-07-20T04:28:20;10.20;;;4.90;;
11054;SDS011;5580;50.106;8.702;2023-07-20T04:30:48;9.67;;;4.83;;
11054;SDS011;5580;50.106;8.702;2023-07-20T04:33:15;10.20;;;4.90;;
11054;SDS011;5580;50.106;8.702;2023-07-20T04:35:51;8.57;;;4.80;;
11054;SDS011;5580;50.106;8.702;2023-07-20T04:38:18;12.00;;;5.10;;
11054;SDS011;5580;50.106;8.702;2023-07-20T04:40:45;8.27;;;4.90;;
11054;SDS011;5580;50.106;8.702;2023-07-20T04:43:12;7.13;;;4.60;;
11054;SDS011;5580;50.106;8.702;2023-07-20T04:45:38;9.97;;;4.47;;
11054;SDS011;5580;50.106;8.702;2023-07-20T04:48:09;10.63;;;4.57;;
11054;SDS011;5580;50.106;8.702;2023-07-20T04:50:36;7.87;;;4.73;;
11054;SDS011;5580;50.106;8.702;2023-07-20T04:53:02;10.30;;;4.87;;
11054;SDS011;5580;50.106;8.702;2023-07-20T04:55:28;9.43;;;4.50;;
11054;SDS011;5580;50.106;8.702;2023-07-20T04:57:53;7.23;;;4.43;;
11054;SDS011;5580;50.106;8.702;2023-07-20T05:00:19;9.13;;;4.50;;
11054;SDS011;5580;50.106;8.702;2023-07-20T05:02:46;10.20;;;4.57;;
11054;SDS011;5580;50.106;8.702;2023-07-20T05:05:13;10.93;;;4.90;;
11054;SDS011;5580;50.106;8.702;2023-07-20T05:07:39;7.63;;;4.57;;
11054;SDS011;5580;50.106;8.702;2023-07-20T05:10:05;11.27;;;4.60;;
11054;SDS011;5580;50.106;8.702;2023-07-20T05:12:31;7.20;;;4.60;;
11054;SDS011;5580;50.106;8.702;2023-07-20T05:14:57;10.33;;;5.00;;
11054;SDS011;5580;50.106;8.702;2023-07-20T05:17:22;7.13;;;4.50;;
11054;SDS011;5580;50.106;8.702;2023-07-20T05:19:49;10.73;;;4.63;;
11054;SDS011;5580;50.106;8.702;2023-07-20T05:22:15;9.33;;;4.63;;
11054;SDS011;5580;50.106;8.702;2023-07-20T05:24:41;7.70;;;4.30;;
11054;SDS011;5580;50.106;8.702;2023-07-20T05:27:07;10.07;;;4.93;;
11054;SDS011;5580;50.106;8.702;2023-07-20T05:29:33;7.93;;;4.67;;
11054;SDS011;5580;50.106;8.702;2023-07-20T05:31:58;8.33;;;4.50;;
11054;SDS011;5580;50.106;8.702;2023-07-20T05:34:24;11.33;;;4.80;;
11054;SDS011;5580;50.106;8.702;2023-07-20T05:36:49;9.53;;;4.63;;
11054;SDS011;5580;50.106;8.702;2023-07-20T05:39:16;7.83;;;4.63;;
11054;SDS011;5580;50.106;8.702;2023-07-20T05:41:43;11.10;;;4.33;;
11054;SDS011;5580;50.106;8.702;2023-07-20T05:44:08;10.00;;;4.60;;
11054;SDS011;5580;50.106;8.702;2023-07-20T05:46:34;9.33;;;4.67;;
11054;SDS011;5580;50.106;8.702;2023-07-20T05:49:00;6.63;;;4.60;;
11054;SDS011;5580;50.106;8.702;2023-07-20T05:51:25;8.97;;;4.70;;
11054;SDS011;5580;50.106;8.702;2023-07-20T05:53:51;7.73;;;4.53;;
11054;SDS011;5580;50.106;8.702;2023-07-20T05:56:16;13.07;;;5.00;;
11054;SDS011;5580;50.106;8.702;2023-07-20T05:58:42;11.10;;;5.00;;
11054;SDS011;5580;50.106;8.702;2023-07-20T06:01:08;10.67;;;5.07;;
11054;SDS011;5580;50.106;8.702;2023-07-20T06:03:33;9.73;;;4.73;;
11054;SDS011;5580;50.106;8.702;2023-07-20T06:06:00;8.80;;;4.93;;
11054;SDS011;5580;50.106;8.702;2023-07-20T06:08:27;8.87;;;4.80;;
11054;SDS011;5580;50.106;8.702;2023-07-20T06:10:53;8.47;;;4.53;;
11054;SDS011;5580;50.106;8.702;2023-07-20T06:13:19;9.67;;;4.87;;
11054;SDS011;5580;50.106;8.702;2023-07-20T06:15:45;9.83;;;4.63;;
11054;SDS011;5580;50.106;8.702;2023-07-20T06:18:12;9.03;;;4.20;;
11054;SDS011;5580;50.106;8.702;2023-07-20T06:20:38;8.00;;;4.33;;
11054;SDS011;5580;50.106;8.702;2023-07-20T06:23:03;9.03;;;4.13;;
11054;SDS011;5580;50.106;8.702;2023-07-20T06:25:29;9.27;;;4.57;;
11054;SDS011;5580;50.106;8.702;2023-07-20T06:27:55;9.33;;;4.30;;
11054;SDS011;5580;50.106;8.702;2023-07-20T06:30:21;10.87;;;4.70;;
11054;SDS011;5580;50.106;8.702;2023-07-20T06:32:47;8.37;;;4.40;;
11054;SDS011;5580;50.106;8.702;2023-07-20T06:35:13;8.70;;;4.30;;
11054;SDS011;5580;50.106;8.702;2023-07-20T06:37:38;10.90;;;4.53;;
11054;SDS011;5580;50.106;8.702;2023-07-20T06:40:04;10.27;;;4.03;;
11054;SDS011;5580;50.106;8.702;2023-07-20T06:42:30;8.47;;;4.33;;
11054;SDS011;5580;50.106;8.702;2023-07-20T06:44:57;7.43;;;4.00;;
11054;SDS011;5580;50.106;8.702;2023-07-20T06:47:23;9.80;;;4.40;;
11054;SDS011;5580;50.106;8.702;2023-07-20T06:49:48;8.13;;;4.30;;
11054;SDS011;5580;50.106;8.702;2023-07-20T06:52:14;8.43;;;4.20;;
11054;SDS011;5580;50.106;8.702;2023-07-20T06:54:40;9.03;;;4.60;;
11054;SDS011;5580;50.106;8.702;2023-07-20T06:57:05;8.57;;;4.40;;
11054;SDS011;5580;50.106;8.702;2023-07-20T06:59:31;6.90;;;4.20;;
11054;SDS011;5580;50.106;8.702;2023-07-20T07:01:57;7.37;;;4.37;;
11054;SDS011;5580;50.106;8.702;2023-07-20T07:04:22;7.43;;;4.10;;
11054;SDS011;5580;50.106;8.702;2023-07-20T07:06:48;8.90;;;4.53;;
11054;SDS011;5580;50.106;8.702;2023-07-20T07:09:14;10.13;;;4.43;;
11054;SDS011;5580;50.106;8.702;2023-07-20T07:11:39;10.33;;;4.37;;
11054;SDS011;5580;50.106;8.702;2023-07-20T07:14:05;8.73;;;4.60;;
11054;SDS011;5580;50.106;8.702;2023-07-20T07:16:30;8.87;;;4.70;;
11054;SDS011;5580;50.106;8.702;2023-07-20T07:18:56;8.90;;;4.60;;
11054;SDS011;5580;50.106;8.702;2023-07-20T07:21:22;7.73;;;4.70;;
11054;SDS011;5580;50.106;8.702;2023-07-20T07:23:47;9.67;;;4.20;;
11054;SDS011;5580;50.106;8.702;2023-07-20T07:26:13;7.67;;;4.77;;
11054;SDS011;5580;50.106;8.702;2023-07-20T07:28:38;6.10;;;4.37;;
11054;SDS011;5580;50.106;8.702;2023-07-20T07:31:04;7.37;;;4.40;;
11054;SDS011;5580;50.106;8.702;2023-07-20T07:33:31;8.03;;;4.57;;
11054;SDS011;5580;50.106;8.702;2023-07-20T07:35:57;5.93;;;3.90;;
11054;SDS011;5580;50.106;8.702;2023-07-20T07:38:22;7.87;;;4.57;;
11054;SDS011;5580;50.106;8.702;2023-07-20T07:40:48;10.30;;;4.50;;
11054;SDS011;5580;50.106;8.702;2023-07-20T07:43:14;9.27;;;4.67;;
11054;SDS011;5580;50.106;8.702;2023-07-20T07:45:40;9.70;;;4.70;;
11054;SDS011;5580;50.106;8.702;2023-07-20T07:48:06;7.60;;;4.67;;
11054;SDS011;5580;50.106;8.702;2023-07-20T07:50:32;7.73;;;4.37;;
11054;SDS011;5580;50.106;8.702;2023-07-20T07:52:58;8.77;;;4.47;;
11054;SDS011;5580;50.106;8.702;2023-07-20T07:55:24;8.87;;;4.60;;
11054;SDS011;5580;50.106;8.702;2023-07-20T07:57:51;8.17;;;5.10;;
11054;SDS011;5580;50.106;8.702;2023-07-20T08:00:17;9.00;;;4.53;;
11054;SDS011;5580;50.106;8.702;2023-07-20T08:02:44;10.50;;;4.90;;
11054;SDS011;5580;50.106;8.702;2023-07-20T08:05:11;12.37;;;4.90;;
11054;SDS011;5580;50.106;8.702;2023-07-20T08:07:37;9.17;;;4.70;;
11054;SDS011;5580;50.106;8.702;2023-07-20T08:10:03;10.40;;;4.60;;
11054;SDS011;5580;50.106;8.702;2023-07-20T08:12:29;6.33;;;4.50;;
11054;SDS011;5580;50.106;8.702;2023-07-20T08:14:55;8.50;;;4.40;;
11054;SDS011;5580;50.106;8.702;2023-07-20T08:17:21;9.20;;;5.27;;
11054;SDS011;5580;50.106;8.702;2023-07-20T08:19:46;6.33;;;4.50;;
11054;SDS011;5580;50.106;8.702;2023-07-20T08:22:12;11.67;;;4.40;;
11054;SDS011;5580;50.106;8.702;2023-07-20T08:24:41;7.40;;;4.10;;
11054;SDS011;5580;50.106;8.702;2023-07-20T08:27:08;7.97;;;4.13;;
11054;SDS011;5580;50.106;8.702;2023-07-20T08:29:35;7.87;;;4.00;;
11054;SDS011;5580;50.106;8.702;2023-07-20T08:32:01;8.13;;;4.23;;
11054;SDS011;5580;50.106;8.702;2023-07-20T08:34:29;6.90;;;3.90;;
11054;SDS011;5580;50.106;8.702;2023-07-20T08:36:55;5.83;;;4.30;;
11054;SDS011;5580;50.106;8.702;2023-07-20T08:39:21;9.20;;;4.40;;
11054;SDS011;5580;50.106;8.702;2023-07-20T08:41:47;6.13;;;4.20;;
11054;SDS011;5580;50.106;8.702;2023-07-20T08:44:14;7.63;;;4.83;;
11054;SDS011;5580;50.106;8.702;2023-07-20T08:46:40;6.60;;;4.03;;
11054;SDS011;5580;50.106;8.702;2023-07-20T08:49:07;7.63;;;4.30;;
11054;SDS011;5580;50.106;8.702;2023-07-20T08:51:33;8.10;;;4.50;;
11054;SDS011;5580;50.106;8.702;2023-07-20T08:54:01;10.10;;;4.50;;
11054;SDS011;5580;50.106;8.702;2023-07-20T08:56:27;6.43;;;4.10;;
11054;SDS011;5580;50.106;8.702;2023-07-20T08:58:56;7.33;;;4.17;;
11054;SDS011;5580;50.106;8.702;2023-07-20T09:01:22;7.37;;;4.23;;
11054;SDS011;5580;50.106;8.702;2023-07-20T09:03:47;7.63;;;4.10;;
11054;SDS011;5580;50.106;8.702;2023-07-20T09:06:14;8.17;;;4.47;;
11054;SDS011;5580;50.106;8.702;2023-07-20T09:08:40;9.77;;;4.87;;
11054;SDS011;5580;50.106;8.702;2023-07-20T09:11:06;7.87;;;4.53;;
11054;SDS011;5580;50.106;8.702;2023-07-20T09:13:33;11.13;;;4.43;;
11054;SDS011;5580;50.106;8.702;2023-07-20T09:15:59;7.37;;;4.40;;
11054;SDS011;5580;50.106;8.702;2023-07-20T09:20:51;5.70;;;3.90;;
11054;SDS011;5580;50.106;8.702;2023-07-20T09:23:17;7.77;;;4.10;;
11054;SDS011;5580;50.106;8.702;2023-07-20T09:25:43;9.00;;;4.30;;
11054;SDS011;5580;50.106;8.702;2023-07-20T09:28:10;8.80;;;4.80;;
11054;SDS011;5580;50.106;8.702;2023-07-20T09:30:36;6.80;;;4.30;;
11054;SDS011;5580;50.106;8.702;2023-07-20T09:33:02;9.63;;;4.40;;
11054;SDS011;5580;50.106;8.702;2023-07-20T09:35:27;6.27;;;4.00;;
11054;SDS011;5580;50.106;8.702;2023-07-20T09:37:55;7.97;;;4.17;;
11054;SDS011;5580;50.106;8.702;2023-07-20T09:40:24;6.87;;;3.80;;
11054;SDS011;5580;50.106;8.702;2023-07-20T09:42:51;7.40;;;4.20;;
11054;SDS011;5580;50.106;8.702;2023-07-20T09:45:18;6.73;;;4.00;;
11054;SDS011;5580;50.106;8.702;2023-07-20T09:47:44;7.57;;;4.03;;
11054;SDS011;5580;50.106;8.702;2023-07-20T09:50:10;6.03;;;4.07;;
11054;SDS011;5580;50.106;8.702;2023-07-20T09:52:42;6.17;;;4.17;;
11054;SDS011;5580;50.106;8.702;2023-07-20T09:55:10;7.73;;;4.40;;
11054;SDS011;5580;50.106;8.702;2023-07-20T09:57:38;8.17;;;4.20;;
11054;SDS011;5580;50.106;8.702;2023-07-20T10:00:04;9.00;;;4.13;;
11054;SDS011;5580;50.106;8.702;2023-07-20T10:02:41;8.97;;;4.33;;
11054;SDS011;5580;50.106;8.702;2023-07-20T10:05:14;7.23;;;4.40;;
11054;SDS011;5580;50.106;8.702;2023-07-20T10:07:49;5.77;;;4.10;;
11054;SDS011;5580;50.106;8.702;2023-07-20T10:10:17;7.83;;;4.10;;
11054;SDS011;5580;50.106;8.702;2023-07-20T10:12:45;8.17;;;4.70;;
11054;SDS011;5580;50.106;8.702;2023-07-20T10:18:09;9.03;;;4.17;;
11054;SDS011;5580;50.106;8.702;2023-07-20T10:20:40;6.23;;;4.40;;
11054;SDS011;5580;50.106;8.702;2023-07-20T10:23:07;8.40;;;4.30;;
11054;SDS011;5580;50.106;8.702;2023-07-20T10:25:33;5.80;;;4.10;;
11054;SDS011;5580;50.106;8.702;2023-07-20T10:28:03;6.83;;;4.33;;
11054;SDS011;5580;50.106;8.702;2023-07-20T10:30:35;7.97;;;4.33;;
11054;SDS011;5580;50.106;8.702;2023-07-20T10:33:02;6.13;;;4.20;;
11054;SDS011;5580;50.106;8.702;2023-07-20T10:35:29;7.00;;;4.03;;
11054;SDS011;5580;50.106;8.702;2023-07-20T10:38:00;10.20;;;4.13;;
11054;SDS011;5580;50.106;8.702;2023-07-20T10:41:16;8.23;;;4.47;;
11054;SDS011;5580;50.106;8.702;2023-07-20T10:43:21;8.60;;;4.17;;
11054;SDS011;5580;50.106;8.702;2023-07-20T10:45:50;11.80;;;4.50;;
11054;SDS011;5580;50.106;8.702;2023-07-20T10:53:40;7.63;;;4.30;;
11054;SDS011;5580;50.106;8.702;2023-07-20T10:56:12;8.30;;;4.23;;
11054;SDS011;5580;50.106;8.702;2023-07-20T10:58:40;6.57;;;4.00;;
11054;SDS011;5580;50.106;8.702;2023-07-20T11:01:06;7.17;;;3.80;;
11054;SDS011;5580;50.106;8.702;2023-07-20T11:03:39;7.43;;;4.30;;
11054;SDS011;5580;50.106;8.702;2023-07-20T11:08:48;5.60;;;3.77;;
11054;SDS011;5580;50.106;8.702;2023-07-20T11:11:23;6.73;;;3.90;;
11054;SDS011;5580;50.106;8.702;2023-07-20T11:16:24;6.03;;;4.10;;
11054;SDS011;5580;50.106;8.702;2023-07-20T11:19:00;8.03;;;4.30;;
11054;SDS011;5580;50.106;8.702;2023-07-20T11:21:26;5.93;;;4.00;;
11054;SDS011;5580;50.106;8.702;2023-07-20T11:23:52;8.00;;;4.10;;
11054;SDS011;5580;50.106;8.702;2023-07-20T11:26:18;7.07;;;4.57;;
11054;SDS011;5580;50.106;8.702;2023-07-20T11:28:53;5.80;;;4.03;;
11054;SDS011;5580;50.106;8.702;2023-07-20T11:31:19;6.53;;;3.83;;
11054;SDS011;5580;50.106;8.702;2023-07-20T11:33:44;8.20;;;4.00;;
11054;SDS011;5580;50.106;8.702;2023-07-20T11:36:11;7.83;;;3.90;;
11054;SDS011;5580;50.106;8.702;2023-07-20T11:38:38;9.87;;;4.00;;
11054;SDS011;5580;50.106;8.702;2023-07-20T11:41:07;5.87;;;4.00;;
11054;SDS011;5580;50.106;8.702;2023-07-20T11:43:32;7.07;;;4.13;;
11054;SDS011;5580;50.106;8.702;2023-07-20T11:45:58;8.80;;;4.27;;
11054;SDS011;5580;50.106;8.702;2023-07-20T11:48:25;7.43;;;4.00;;
11054;SDS011;5580;50.106;8.702;2023-07-20T11:50:51;5.87;;;4.10;;
11054;SDS011;5580;50.106;8.702;2023-07-20T11:53:16;9.93;;;3.80;;
11054;SDS011;5580;50.106;8.702;2023-07-20T11:55:42;7.07;;;4.37;;
11054;SDS011;5580;50.106;8.702;2023-07-20T11:58:09;7.27;;;4.10;;
11054;SDS011;5580;50.106;8.702;2023-07-20T12:00:36;8.40;;;4.00;;
11054;SDS011;5580;50.106;8.702;2023-07-20T12:03:04;5.50;;;3.97;;
11054;SDS011;5580;50.106;8.702;2023-07-20T12:05:36;6.60;;;4.10;;
11054;SDS011;5580;50.106;8.702;2023-07-20T12:08:03;5.20;;;4.00;;
11054;SDS011;5580;50.106;8.702;2023-07-20T12:10:29;7.87;;;4.20;;
11054;SDS011;5580;50.106;8.702;2023-07-20T12:13:00;5.63;;;4.10;;
11054;SDS011;5580;50.106;8.702;2023-07-20T12:15:27;8.50;;;3.90;;
11054;SDS011;5580;50.106;8.702;2023-07-20T12:17:58;8.20;;;3.90;;
11054;SDS011;5580;50.106;8.702;2023-07-20T12:22:52;6.67;;;4.50;;
11054;SDS011;5580;50.106;8.702;2023-07-20T12:25:19;7.37;;;4.20;;
11054;SDS011;5580;50.106;8.702;2023-07-20T12:27:45;7.03;;;4.03;;
11054;SDS011;5580;50.106;8.702;2023-07-20T12:30:12;6.53;;;4.00;;
11054;SDS011;5580;50.106;8.702;2023-07-20T12:32:41;7.60;;;4.00;;
11054;SDS011;5580;50.106;8.702;2023-07-20T12:35:07;6.33;;;4.00;;
11054;SDS011;5580;50.106;8.702;2023-07-20T12:37:33;6.33;;;3.80;;
11054;SDS011;5580;50.106;8.702;2023-07-20T12:39:59;7.90;;;3.80;;
11054;SDS011;5580;50.106;8.702;2023-07-20T12:42:25;6.37;;;4.00;;
11054;SDS011;5580;50.106;8.702;2023-07-20T12:44:50;5.40;;;3.77;;
11054;SDS011;5580;50.106;8.702;2023-07-20T12:47:17;6.30;;;4.00;;
11054;SDS011;5580;50.106;8.702;2023-07-20T12:49:43;5.27;;;3.90;;
11054;SDS011;5580;50.106;8.702;2023-07-20T12:52:10;5.60;;;3.63;;
11054;SDS011;5580;50.106;8.702;2023-07-20T12:54:36;6.27;;;3.83;;
11054;SDS011;5580;50.106;8.702;2023-07-20T12:57:02;5.00;;;3.77;;
11054;SDS011;5580;50.106;8.702;2023-07-20T12:59:28;6.67;;;4.10;;
11054;SDS011;5580;50.106;8.702;2023-07-20T13:01:54;6.97;;;3.70;;
11054;SDS011;5580;50.106;8.702;2023-07-20T13:04:19;6.60;;;3.53;;
11054;SDS011;5580;50.106;8.702;2023-07-20T13:06:45;7.63;;;4.00;;
11054;SDS011;5580;50.106;8.702;2023-07-20T13:09:11;6.83;;;3.60;;
11054;SDS011;5580;50.106;8.702;2023-07-20T13:11:36;5.30;;;3.70;;
11054;SDS011;5580;50.106;8.702;2023-07-20T13:14:02;6.63;;;3.60;;
11054;SDS011;5580;50.106;8.702;2023-07-20T13:16:28;6.07;;;3.97;;
11054;SDS011;5580;50.106;8.702;2023-07-20T13:18:53;7.27;;;4.13;;
11054;SDS011;5580;50.106;8.702;2023-07-20T13:21:19;8.43;;;3.93;;
11054;SDS011;5580;50.106;8.702;2023-07-20T13:23:47;4.13;;;3.57;;
11054;SDS011;5580;50.106;8.702;2023-07-20T13:26:13;6.57;;;4.17;;
11054;SDS011;5580;50.106;8.702;2023-07-20T13:28:42;6.43;;;4.07;;
11054;SDS011;5580;50.106;8.702;2023-07-20T13:31:08;5.30;;;3.80;;
11054;SDS011;5580;50.106;8.702;2023-07-20T13:33:35;4.10;;;3.50;;
11054;SDS011;5580;50.106;8.702;2023-07-20T13:36:01;7.27;;;3.90;;
11054;SDS011;5580;50.106;8.702;2023-07-20T13:38:26;5.17;;;3.47;;
11054;SDS011;5580;50.106;8.702;2023-07-20T13:40:52;4.40;;;3.50;;
11054;SDS011;5580;50.106;8.702;2023-07-20T13:43:18;4.97;;;3.30;;
11054;SDS011;5580;50.106;8.702;2023-07-20T13:45:43;5.30;;;3.63;;
11054;SDS011;5580;50.106;8.702;2023-07-20T13:48:09;4.30;;;3.40;;
11054;SDS011;5580;50.106;8.702;2023-07-20T13:50:34;4.23;;;3.47;;
11054;SDS011;5580;50.106;8.702;2023-07-20T13:53:00;6.00;;;3.47;;
11054;SDS011;5580;50.106;8.702;2023-07-20T13:55:28;5.33;;;3.50;;
11054;SDS011;5580;50.106;8.702;2023-07-20T13:57:53;4.83;;;3.13;;
11054;SDS011;5580;50.106;8.702;2023-07-20T14:00:19;3.97;;;3.23;;
11054;SDS011;5580;50.106;8.702;2023-07-20T14:02:45;5.83;;;3.70;;
11054;SDS011;5580;50.106;8.702;2023-07-20T14:05:10;4.40;;;3.07;;
11054;SDS011;5580;50.106;8.702;2023-07-20T14:07:36;5.53;;;3.50;;
11054;SDS011;5580;50.106;8.702;2023-07-20T14:10:02;4.33;;;3.30;;
11054;SDS011;5580;50.106;8.702;2023-07-20T14:12:28;5.77;;;3.60;;
11054;SDS011;5580;50.106;8.702;2023-07-20T14:14:54;4.00;;;3.60;;
11054;SDS011;5580;50.106;8.702;2023-07-20T14:17:21;6.50;;;3.70;;
11054;SDS011;5580;50.106;8.702;2023-07-20T14:19:46;5.30;;;3.27;;
11054;SDS011;5580;50.106;8.702;2023-07-20T14:22:12;4.57;;;3.43;;
11054;SDS011;5580;50.106;8.702;2023-07-20T14:24:38;7.47;;;3.70;;
11054;SDS011;5580;50.106;8.702;2023-07-20T14:27:03;5.67;;;3.50;;
11054;SDS011;5580;50.106;8.702;2023-07-20T14:29:29;6.77;;;3.43;;
11054;SDS011;5580;50.106;8.702;2023-07-20T14:31:56;5.43;;;3.47;;
11054;SDS011;5580;50.106;8.702;2023-07-20T14:34:22;5.80;;;3.33;;
11054;SDS011;5580;50.106;8.702;2023-07-20T14:36:48;7.00;;;3.47;;
11054;SDS011;5580;50.106;8.702;2023-07-20T14:39:14;4.60;;;3.37;;
11054;SDS011;5580;50.106;8.702;2023-07-20T14:41:40;4.13;;;3.37;;
11054;SDS011;5580;50.106;8.702;2023-07-20T14:44:06;6.57;;;3.30;;
11054;SDS011;5580;50.106;8.702;2023-07-20T14:46:31;4.10;;;3.27;;
11054;SDS011;5580;50.106;8.702;2023-07-20T14:48:57;5.10;;;3.20;;
11054;SDS011;5580;50.106;8.702;2023-07-20T14:51:23;6.87;;;3.53;;
11054;SDS011;5580;50.106;8.702;2023-07-20T14:53:49;3.73;;;3.33;;
11054;SDS011;5580;50.106;8.702;2023-07-20T14:56:14;4.40;;;3.30;;
11054;SDS011;5580;50.106;8.702;2023-07-20T14:58:40;8.17;;;4.60;;
11054;SDS011;5580;50.106;8.702;2023-07-20T15:01:06;7.50;;;4.13;;
11054;SDS011;5580;50.106;8.702;2023-07-20T15:03:31;4.97;;;3.50;;
11054;SDS011;5580;50.106;8.702;2023-07-20T15:05:57;5.93;;;3.80;;
11054;SDS011;5580;50.106;8.702;2023-07-20T15:08:22;4.10;;;3.70;;
11054;SDS011;5580;50.106;8.702;2023-07-20T15:10:48;4.57;;;3.40;;
11054;SDS011;5580;50.106;8.702;2023-07-20T15:13:14;5.03;;;3.20;;
11054;SDS011;5580;50.106;8.702;2023-07-20T15:15:40;3.90;;;3.50;;
11054;SDS011;5580;50.106;8.702;2023-07-20T15:18:06;5.27;;;3.33;;
11054;SDS011;5580;50.106;8.702;2023-07-20T15:20:32;10.13;;;3.60;;
11054;SDS011;5580;50.106;8.702;2023-07-20T15:22:58;5.03;;;3.37;;
11054;SDS011;5580;50.106;8.702;2023-07-20T15:25:24;5.50;;;3.40;;